sensor_id;sensor_type;location;lat;lon;timestamp;P1;durP1;ratioP1;P2;durP2;ratioP2
52686;SDS011;38584;49.426;8.396;2022-11-20T00:01:13;41.28;;;24.35;;
52686;SDS011;38584;49.426;8.396;2022-11-20T00:03:40;38.33;;;23.52;;
52686;SDS011;38584;49.426;8.396;2022-11-20T00:06:07;32.92;;;21.40;;
52686;SDS011;38584;49.426;8.396;2022-11-20T00:08:34;36.28;;;21.83;;
52686;SDS011;38584;49.426;8.396;2022-11-20T00:11:06;33.50;;;20.92;;
52686;SDS011;38584;49.426;8.396;2022-11-20T00:13:33;32.92;;;20.17;;
52686;SDS011;38584;49.426;8.396;2022-11-20T00:15:59;34.50;;;21.42;;
52686;SDS011;38584;49.426;8.396;2022-11-20T00:18:26;34.67;;;21.33;;
52686;SDS011;38584;49.426;8.396;2022-11-20T00:20:52;31.88;;;19.60;;
52686;SDS011;38584;49.426;8.396;2022-11-20T00:23:17;31.67;;;18.92;;
52686;SDS011;38584;49.426;8.396;2022-11-20T00:25:42;30.52;;;19.08;;
52686;SDS011;38584;49.426;8.396;2022-11-20T00:28:08;33.92;;;19.00;;
52686;SDS011;38584;49.426;8.396;2022-11-20T00:30:33;30.10;;;18.58;;
52686;SDS011;38584;49.426;8.396;2022-11-20T00:32:58;30.20;;;19.10;;
52686;SDS011;38584;49.426;8.396;2022-11-20T00:35:23;30.10;;;18.88;;
52686;SDS011;38584;49.426;8.396;2022-11-20T00:37:49;29.27;;;17.38;;
52686;SDS011;38584;49.426;8.396;2022-11-20T00:40:14;31.30;;;19.83;;
52686;SDS011;38584;49.426;8.396;2022-11-20T00:42:39;28.08;;;17.90;;
52686;SDS011;38584;49.426;8.396;2022-11-20T00:45:05;29.63;;;17.95;;
52686;SDS011;38584;49.426;8.396;2022-11-20T00:47:30;29.83;;;19.15;;
52686;SDS011;38584;49.426;8.396;2022-11-20T00:49:56;28.83;;;17.30;;
52686;SDS011;38584;49.426;8.396;2022-11-20T00:52:21;28.38;;;18.20;;
52686;SDS011;38584;49.426;8.396;2022-11-20T00:54:46;28.77;;;18.17;;
52686;SDS011;38584;49.426;8.396;2022-11-20T00:57:11;29.20;;;18.25;;
52686;SDS011;38584;49.426;8.396;2022-11-20T00:59:37;32.42;;;19.83;;
52686;SDS011;38584;49.426;8.396;2022-11-20T01:02:02;30.75;;;18.58;;
52686;SDS011;38584;49.426;8.396;2022-11-20T01:04:27;31.88;;;19.20;;
52686;SDS011;38584;49.426;8.396;2022-11-20T01:06:53;29.08;;;18.38;;
52686;SDS011;38584;49.426;8.396;2022-11-20T01:09:18;30.65;;;18.58;;
52686;SDS011;38584;49.426;8.396;2022-11-20T01:11:44;31.77;;;20.17;;
52686;SDS011;38584;49.426;8.396;2022-11-20T01:14:10;29.73;;;18.85;;
52686;SDS011;38584;49.426;8.396;2022-11-20T01:16:39;28.30;;;16.33;;
52686;SDS011;38584;49.426;8.396;2022-11-20T01:19:07;28.20;;;17.90;;
52686;SDS011;38584;49.426;8.396;2022-11-20T01:21:37;27.65;;;16.67;;
52686;SDS011;38584;49.426;8.396;2022-11-20T01:24:04;28.52;;;17.73;;
52686;SDS011;38584;49.426;8.396;2022-11-20T01:26:33;30.33;;;17.45;;
52686;SDS011;38584;49.426;8.396;2022-11-20T01:28:59;27.40;;;16.85;;
52686;SDS011;38584;49.426;8.396;2022-11-20T01:31:29;28.50;;;17.77;;
52686;SDS011;38584;49.426;8.396;2022-11-20T01:33:57;29.27;;;18.10;;
52686;SDS011;38584;49.426;8.396;2022-11-20T01:36:25;33.17;;;19.73;;
52686;SDS011;38584;49.426;8.396;2022-11-20T01:38:52;34.28;;;20.40;;
52686;SDS011;38584;49.426;8.396;2022-11-20T01:41:19;33.05;;;20.75;;
52686;SDS011;38584;49.426;8.396;2022-11-20T01:44:03;31.70;;;19.77;;
52686;SDS011;38584;49.426;8.396;2022-11-20T01:46:29;31.80;;;19.77;;
52686;SDS011;38584;49.426;8.396;2022-11-20T01:48:58;30.58;;;19.30;;
52686;SDS011;38584;49.426;8.396;2022-11-20T01:51:29;34.90;;;20.73;;
52686;SDS011;38584;49.426;8.396;2022-11-20T01:54:00;35.72;;;21.23;;
52686;SDS011;38584;49.426;8.396;2022-11-20T01:56:27;36.42;;;22.85;;
52686;SDS011;38584;49.426;8.396;2022-11-20T01:58:54;39.55;;;23.67;;
52686;SDS011;38584;49.426;8.396;2022-11-20T02:01:22;38.13;;;22.92;;
52686;SDS011;38584;49.426;8.396;2022-11-20T02:03:47;39.03;;;23.27;;
52686;SDS011;38584;49.426;8.396;2022-11-20T02:08:38;38.58;;;22.30;;
52686;SDS011;38584;49.426;8.396;2022-11-20T02:11:04;36.85;;;22.48;;
52686;SDS011;38584;49.426;8.396;2022-11-20T02:13:29;35.17;;;22.13;;
52686;SDS011;38584;49.426;8.396;2022-11-20T02:18:46;38.35;;;22.63;;
52686;SDS011;38584;49.426;8.396;2022-11-20T02:21:13;36.55;;;22.88;;
52686;SDS011;38584;49.426;8.396;2022-11-20T02:23:52;35.38;;;21.27;;
52686;SDS011;38584;49.426;8.396;2022-11-20T02:26:21;38.92;;;22.23;;
52686;SDS011;38584;49.426;8.396;2022-11-20T02:28:48;35.60;;;21.90;;
52686;SDS011;38584;49.426;8.396;2022-11-20T02:31:13;37.33;;;22.38;;
52686;SDS011;38584;49.426;8.396;2022-11-20T02:33:39;39.17;;;23.98;;
52686;SDS011;38584;49.426;8.396;2022-11-20T02:36:04;38.65;;;22.35;;
52686;SDS011;38584;49.426;8.396;2022-11-20T02:38:30;38.83;;;22.15;;
52686;SDS011;38584;49.426;8.396;2022-11-20T02:40:55;33.25;;;21.50;;
52686;SDS011;38584;49.426;8.396;2022-11-20T02:43:20;33.20;;;20.70;;
52686;SDS011;38584;49.426;8.396;2022-11-20T02:45:45;33.42;;;20.45;;
52686;SDS011;38584;49.426;8.396;2022-11-20T02:48:11;35.67;;;21.95;;
52686;SDS011;38584;49.426;8.396;2022-11-20T02:50:37;36.55;;;22.02;;
52686;SDS011;38584;49.426;8.396;2022-11-20T02:53:03;33.03;;;20.92;;
52686;SDS011;38584;49.426;8.396;2022-11-20T02:55:28;33.95;;;20.38;;
52686;SDS011;38584;49.426;8.396;2022-11-20T02:57:54;33.40;;;21.58;;
52686;SDS011;38584;49.426;8.396;2022-11-20T03:00:19;33.45;;;20.15;;
52686;SDS011;38584;49.426;8.396;2022-11-20T03:02:44;35.58;;;21.95;;
52686;SDS011;38584;49.426;8.396;2022-11-20T03:05:10;35.55;;;22.30;;
52686;SDS011;38584;49.426;8.396;2022-11-20T03:07:36;34.63;;;20.92;;
52686;SDS011;38584;49.426;8.396;2022-11-20T03:10:01;34.95;;;22.27;;
52686;SDS011;38584;49.426;8.396;2022-11-20T03:12:26;38.10;;;22.33;;
52686;SDS011;38584;49.426;8.396;2022-11-20T03:14:52;34.40;;;20.42;;
52686;SDS011;38584;49.426;8.396;2022-11-20T03:17:17;30.88;;;19.15;;
52686;SDS011;38584;49.426;8.396;2022-11-20T03:19:42;35.72;;;21.77;;
52686;SDS011;38584;49.426;8.396;2022-11-20T03:22:08;38.75;;;22.27;;
52686;SDS011;38584;49.426;8.396;2022-11-20T03:24:33;34.15;;;20.58;;
52686;SDS011;38584;49.426;8.396;2022-11-20T03:26:58;34.53;;;21.40;;
52686;SDS011;38584;49.426;8.396;2022-11-20T03:29:24;42.50;;;23.92;;
52686;SDS011;38584;49.426;8.396;2022-11-20T03:31:49;40.63;;;23.50;;
52686;SDS011;38584;49.426;8.396;2022-11-20T03:34:14;40.78;;;24.30;;
52686;SDS011;38584;49.426;8.396;2022-11-20T03:36:40;41.15;;;22.73;;
52686;SDS011;38584;49.426;8.396;2022-11-20T03:39:07;39.20;;;22.20;;
52686;SDS011;38584;49.426;8.396;2022-11-20T03:41:35;36.40;;;21.20;;
52686;SDS011;38584;49.426;8.396;2022-11-20T03:44:02;35.28;;;20.13;;
52686;SDS011;38584;49.426;8.396;2022-11-20T03:46:29;31.67;;;19.00;;
52686;SDS011;38584;49.426;8.396;2022-11-20T03:48:54;35.15;;;20.35;;
52686;SDS011;38584;49.426;8.396;2022-11-20T03:51:23;33.10;;;18.67;;
52686;SDS011;38584;49.426;8.396;2022-11-20T03:53:54;35.00;;;20.63;;
52686;SDS011;38584;49.426;8.396;2022-11-20T03:56:28;39.45;;;20.42;;
52686;SDS011;38584;49.426;8.396;2022-11-20T03:58:55;33.17;;;19.60;;
52686;SDS011;38584;49.426;8.396;2022-11-20T04:01:21;33.50;;;19.90;;
52686;SDS011;38584;49.426;8.396;2022-11-20T04:03:48;34.53;;;20.63;;
52686;SDS011;38584;49.426;8.396;2022-11-20T04:06:18;41.38;;;21.30;;
52686;SDS011;38584;49.426;8.396;2022-11-20T04:08:48;38.80;;;22.15;;
52686;SDS011;38584;49.426;8.396;2022-11-20T04:11:14;40.78;;;22.08;;
52686;SDS011;38584;49.426;8.396;2022-11-20T04:13:40;41.90;;;22.48;;
52686;SDS011;38584;49.426;8.396;2022-11-20T04:16:06;39.95;;;21.65;;
52686;SDS011;38584;49.426;8.396;2022-11-20T04:18:32;35.97;;;20.42;;
52686;SDS011;38584;49.426;8.396;2022-11-20T04:20:58;35.08;;;20.02;;
52686;SDS011;38584;49.426;8.396;2022-11-20T04:23:24;33.85;;;19.95;;
52686;SDS011;38584;49.426;8.396;2022-11-20T04:25:49;36.58;;;20.40;;
52686;SDS011;38584;49.426;8.396;2022-11-20T04:28:15;36.22;;;19.75;;
52686;SDS011;38584;49.426;8.396;2022-11-20T04:30:41;39.65;;;21.02;;
52686;SDS011;38584;49.426;8.396;2022-11-20T04:33:06;37.60;;;22.13;;
52686;SDS011;38584;49.426;8.396;2022-11-20T04:35:35;40.33;;;21.88;;
52686;SDS011;38584;49.426;8.396;2022-11-20T04:38:00;41.28;;;22.20;;
52686;SDS011;38584;49.426;8.396;2022-11-20T04:40:27;43.05;;;22.13;;
52686;SDS011;38584;49.426;8.396;2022-11-20T04:42:52;43.97;;;22.25;;
52686;SDS011;38584;49.426;8.396;2022-11-20T04:45:18;38.58;;;21.80;;
52686;SDS011;38584;49.426;8.396;2022-11-20T04:47:44;35.13;;;20.02;;
52686;SDS011;38584;49.426;8.396;2022-11-20T04:50:09;36.70;;;20.63;;
52686;SDS011;38584;49.426;8.396;2022-11-20T04:52:34;36.97;;;20.00;;
52686;SDS011;38584;49.426;8.396;2022-11-20T04:55:00;36.50;;;19.92;;
52686;SDS011;38584;49.426;8.396;2022-11-20T04:57:25;39.03;;;21.27;;
52686;SDS011;38584;49.426;8.396;2022-11-20T04:59:51;35.75;;;19.80;;
52686;SDS011;38584;49.426;8.396;2022-11-20T05:02:16;39.65;;;20.90;;
52686;SDS011;38584;49.426;8.396;2022-11-20T05:04:41;37.60;;;20.23;;
52686;SDS011;38584;49.426;8.396;2022-11-20T05:07:06;38.30;;;20.40;;
52686;SDS011;38584;49.426;8.396;2022-11-20T05:09:32;35.83;;;19.52;;
52686;SDS011;38584;49.426;8.396;2022-11-20T05:11:57;34.35;;;19.92;;
52686;SDS011;38584;49.426;8.396;2022-11-20T05:14:22;34.60;;;20.00;;
52686;SDS011;38584;49.426;8.396;2022-11-20T05:16:48;33.55;;;19.02;;
52686;SDS011;38584;49.426;8.396;2022-11-20T05:19:13;34.38;;;19.50;;
52686;SDS011;38584;49.426;8.396;2022-11-20T05:21:38;34.50;;;20.05;;
52686;SDS011;38584;49.426;8.396;2022-11-20T05:24:04;33.78;;;19.90;;
52686;SDS011;38584;49.426;8.396;2022-11-20T05:26:29;36.05;;;19.77;;
52686;SDS011;38584;49.426;8.396;2022-11-20T05:28:55;34.35;;;20.00;;
52686;SDS011;38584;49.426;8.396;2022-11-20T05:31:21;30.85;;;17.83;;
52686;SDS011;38584;49.426;8.396;2022-11-20T05:33:48;33.60;;;19.90;;
52686;SDS011;38584;49.426;8.396;2022-11-20T05:36:14;35.42;;;21.38;;
52686;SDS011;38584;49.426;8.396;2022-11-20T05:38:40;34.72;;;20.38;;
52686;SDS011;38584;49.426;8.396;2022-11-20T05:41:09;33.85;;;21.55;;
52686;SDS011;38584;49.426;8.396;2022-11-20T05:43:37;35.72;;;21.08;;
52686;SDS011;38584;49.426;8.396;2022-11-20T05:46:03;37.53;;;21.67;;
52686;SDS011;38584;49.426;8.396;2022-11-20T05:48:30;37.05;;;21.55;;
52686;SDS011;38584;49.426;8.396;2022-11-20T05:50:59;38.47;;;21.30;;
52686;SDS011;38584;49.426;8.396;2022-11-20T05:53:25;33.05;;;19.63;;
52686;SDS011;38584;49.426;8.396;2022-11-20T05:55:58;34.25;;;20.48;;
52686;SDS011;38584;49.426;8.396;2022-11-20T05:58:23;39.30;;;23.23;;
52686;SDS011;38584;49.426;8.396;2022-11-20T06:00:48;39.80;;;22.98;;
52686;SDS011;38584;49.426;8.396;2022-11-20T06:03:14;39.33;;;22.83;;
52686;SDS011;38584;49.426;8.396;2022-11-20T06:05:39;39.78;;;22.85;;
52686;SDS011;38584;49.426;8.396;2022-11-20T06:08:04;40.88;;;22.17;;
52686;SDS011;38584;49.426;8.396;2022-11-20T06:10:29;35.88;;;20.65;;
52686;SDS011;38584;49.426;8.396;2022-11-20T06:12:57;37.95;;;21.45;;
52686;SDS011;38584;49.426;8.396;2022-11-20T06:15:22;47.03;;;22.70;;
52686;SDS011;38584;49.426;8.396;2022-11-20T06:17:51;37.55;;;21.27;;
52686;SDS011;38584;49.426;8.396;2022-11-20T06:20:17;36.42;;;20.60;;
52686;SDS011;38584;49.426;8.396;2022-11-20T06:22:42;36.42;;;20.30;;
52686;SDS011;38584;49.426;8.396;2022-11-20T06:25:08;35.65;;;20.80;;
52686;SDS011;38584;49.426;8.396;2022-11-20T06:27:33;34.20;;;19.85;;
52686;SDS011;38584;49.426;8.396;2022-11-20T06:29:58;37.00;;;20.80;;
52686;SDS011;38584;49.426;8.396;2022-11-20T06:32:23;39.17;;;21.75;;
52686;SDS011;38584;49.426;8.396;2022-11-20T06:34:49;36.00;;;20.48;;
52686;SDS011;38584;49.426;8.396;2022-11-20T06:37:14;36.35;;;20.92;;
52686;SDS011;38584;49.426;8.396;2022-11-20T06:39:39;33.63;;;20.65;;
52686;SDS011;38584;49.426;8.396;2022-11-20T06:42:05;35.22;;;20.45;;
52686;SDS011;38584;49.426;8.396;2022-11-20T06:44:30;34.53;;;20.45;;
52686;SDS011;38584;49.426;8.396;2022-11-20T06:46:55;34.97;;;20.63;;
52686;SDS011;38584;49.426;8.396;2022-11-20T06:49:20;33.55;;;18.88;;
52686;SDS011;38584;49.426;8.396;2022-11-20T06:51:46;35.95;;;20.23;;
52686;SDS011;38584;49.426;8.396;2022-11-20T06:54:11;32.22;;;20.25;;
52686;SDS011;38584;49.426;8.396;2022-11-20T06:56:36;31.58;;;18.98;;
52686;SDS011;38584;49.426;8.396;2022-11-20T06:59:06;34.65;;;19.73;;
52686;SDS011;38584;49.426;8.396;2022-11-20T07:01:31;36.75;;;20.55;;
52686;SDS011;38584;49.426;8.396;2022-11-20T07:03:57;36.80;;;21.13;;
52686;SDS011;38584;49.426;8.396;2022-11-20T07:06:22;36.97;;;21.55;;
52686;SDS011;38584;49.426;8.396;2022-11-20T07:08:49;36.30;;;20.85;;
52686;SDS011;38584;49.426;8.396;2022-11-20T07:11:16;37.85;;;21.67;;
52686;SDS011;38584;49.426;8.396;2022-11-20T07:13:41;35.97;;;21.13;;
52686;SDS011;38584;49.426;8.396;2022-11-20T07:16:07;36.55;;;21.20;;
52686;SDS011;38584;49.426;8.396;2022-11-20T07:18:32;35.80;;;20.50;;
52686;SDS011;38584;49.426;8.396;2022-11-20T07:21:05;36.05;;;20.63;;
52686;SDS011;38584;49.426;8.396;2022-11-20T07:23:31;34.27;;;20.57;;
52686;SDS011;38584;49.426;8.396;2022-11-20T07:25:57;35.67;;;20.08;;
52686;SDS011;38584;49.426;8.396;2022-11-20T07:28:22;33.63;;;19.77;;
52686;SDS011;38584;49.426;8.396;2022-11-20T07:30:51;35.63;;;19.85;;
52686;SDS011;38584;49.426;8.396;2022-11-20T07:33:18;34.97;;;19.20;;
52686;SDS011;38584;49.426;8.396;2022-11-20T07:35:43;32.85;;;19.45;;
52686;SDS011;38584;49.426;8.396;2022-11-20T07:38:09;33.55;;;21.05;;
52686;SDS011;38584;49.426;8.396;2022-11-20T07:40:34;33.28;;;19.38;;
52686;SDS011;38584;49.426;8.396;2022-11-20T07:42:59;33.15;;;19.58;;
52686;SDS011;38584;49.426;8.396;2022-11-20T07:45:25;32.40;;;19.00;;
52686;SDS011;38584;49.426;8.396;2022-11-20T07:47:50;32.92;;;19.40;;
52686;SDS011;38584;49.426;8.396;2022-11-20T07:50:16;34.40;;;20.58;;
52686;SDS011;38584;49.426;8.396;2022-11-20T07:52:44;32.75;;;18.77;;
52686;SDS011;38584;49.426;8.396;2022-11-20T07:55:10;33.15;;;18.88;;
52686;SDS011;38584;49.426;8.396;2022-11-20T07:57:36;33.58;;;19.55;;
52686;SDS011;38584;49.426;8.396;2022-11-20T08:00:02;31.20;;;18.98;;
52686;SDS011;38584;49.426;8.396;2022-11-20T08:02:28;29.88;;;18.27;;
52686;SDS011;38584;49.426;8.396;2022-11-20T08:04:54;30.48;;;18.48;;
52686;SDS011;38584;49.426;8.396;2022-11-20T08:07:19;28.98;;;17.73;;
52686;SDS011;38584;49.426;8.396;2022-11-20T08:09:44;31.85;;;19.38;;
52686;SDS011;38584;49.426;8.396;2022-11-20T08:12:16;29.08;;;17.45;;
52686;SDS011;38584;49.426;8.396;2022-11-20T08:15:02;29.40;;;17.13;;
52686;SDS011;38584;49.426;8.396;2022-11-20T08:17:28;31.60;;;19.02;;
52686;SDS011;38584;49.426;8.396;2022-11-20T08:19:54;31.40;;;19.55;;
52686;SDS011;38584;49.426;8.396;2022-11-20T08:22:19;31.17;;;18.83;;
52686;SDS011;38584;49.426;8.396;2022-11-20T08:24:45;31.40;;;19.20;;
52686;SDS011;38584;49.426;8.396;2022-11-20T08:27:10;31.02;;;18.45;;
52686;SDS011;38584;49.426;8.396;2022-11-20T08:29:36;32.03;;;18.40;;
52686;SDS011;38584;49.426;8.396;2022-11-20T08:32:01;29.88;;;18.17;;
52686;SDS011;38584;49.426;8.396;2022-11-20T08:34:26;32.05;;;18.25;;
52686;SDS011;38584;49.426;8.396;2022-11-20T08:36:51;29.38;;;17.98;;
52686;SDS011;38584;49.426;8.396;2022-11-20T08:39:17;27.13;;;16.85;;
52686;SDS011;38584;49.426;8.396;2022-11-20T08:41:42;30.13;;;17.27;;
52686;SDS011;38584;49.426;8.396;2022-11-20T08:44:07;28.33;;;17.10;;
52686;SDS011;38584;49.426;8.396;2022-11-20T08:46:34;31.20;;;18.98;;
52686;SDS011;38584;49.426;8.396;2022-11-20T08:49:02;29.95;;;18.75;;
52686;SDS011;38584;49.426;8.396;2022-11-20T08:51:28;31.13;;;18.63;;
52686;SDS011;38584;49.426;8.396;2022-11-20T08:53:53;30.98;;;18.65;;
52686;SDS011;38584;49.426;8.396;2022-11-20T08:56:19;28.85;;;17.52;;
52686;SDS011;38584;49.426;8.396;2022-11-20T08:58:44;28.55;;;17.00;;
52686;SDS011;38584;49.426;8.396;2022-11-20T09:01:10;28.60;;;18.15;;
52686;SDS011;38584;49.426;8.396;2022-11-20T09:03:35;31.58;;;17.00;;
52686;SDS011;38584;49.426;8.396;2022-11-20T09:06:01;32.42;;;18.73;;
52686;SDS011;38584;49.426;8.396;2022-11-20T09:08:28;31.35;;;19.13;;
52686;SDS011;38584;49.426;8.396;2022-11-20T09:10:54;32.08;;;18.90;;
52686;SDS011;38584;49.426;8.396;2022-11-20T09:13:20;30.83;;;19.02;;
52686;SDS011;38584;49.426;8.396;2022-11-20T09:15:47;31.65;;;19.25;;
52686;SDS011;38584;49.426;8.396;2022-11-20T09:18:12;30.73;;;19.63;;
52686;SDS011;38584;49.426;8.396;2022-11-20T09:20:38;31.45;;;19.02;;
52686;SDS011;38584;49.426;8.396;2022-11-20T09:23:03;29.98;;;18.77;;
52686;SDS011;38584;49.426;8.396;2022-11-20T09:25:29;33.88;;;19.48;;
52686;SDS011;38584;49.426;8.396;2022-11-20T09:27:57;30.15;;;18.65;;
52686;SDS011;38584;49.426;8.396;2022-11-20T09:30:23;37.38;;;22.40;;
52686;SDS011;38584;49.426;8.396;2022-11-20T09:32:48;38.40;;;23.30;;
52686;SDS011;38584;49.426;8.396;2022-11-20T09:35:13;42.95;;;23.63;;
52686;SDS011;38584;49.426;8.396;2022-11-20T09:37:39;37.38;;;22.45;;
52686;SDS011;38584;49.426;8.396;2022-11-20T09:40:05;37.60;;;22.35;;
52686;SDS011;38584;49.426;8.396;2022-11-20T09:42:47;40.67;;;23.35;;
52686;SDS011;38584;49.426;8.396;2022-11-20T09:45:24;40.53;;;23.23;;
52686;SDS011;38584;49.426;8.396;2022-11-20T09:56:00;40.35;;;23.23;;
52686;SDS011;38584;49.426;8.396;2022-11-20T10:01:01;36.67;;;21.47;;
52686;SDS011;38584;49.426;8.396;2022-11-20T10:04:21;33.63;;;20.75;;
52686;SDS011;38584;49.426;8.396;2022-11-20T10:06:31;37.20;;;20.48;;
52686;SDS011;38584;49.426;8.396;2022-11-20T10:11:54;33.97;;;19.95;;
52686;SDS011;38584;49.426;8.396;2022-11-20T10:19:41;35.35;;;21.45;;
52686;SDS011;38584;49.426;8.396;2022-11-20T10:25:14;40.03;;;21.38;;
52686;SDS011;38584;49.426;8.396;2022-11-20T10:27:48;35.53;;;22.40;;
52686;SDS011;38584;49.426;8.396;2022-11-20T10:32:46;38.10;;;22.48;;
52686;SDS011;38584;49.426;8.396;2022-11-20T10:35:21;38.97;;;23.98;;
52686;SDS011;38584;49.426;8.396;2022-11-20T10:37:55;40.97;;;23.65;;
52686;SDS011;38584;49.426;8.396;2022-11-20T10:40:56;42.90;;;26.05;;
52686;SDS011;38584;49.426;8.396;2022-11-20T10:43:17;45.60;;;25.45;;
52686;SDS011;38584;49.426;8.396;2022-11-20T10:45:58;52.83;;;28.02;;
52686;SDS011;38584;49.426;8.396;2022-11-20T10:48:27;50.17;;;28.38;;
52686;SDS011;38584;49.426;8.396;2022-11-20T10:53:53;47.47;;;25.50;;
52686;SDS011;38584;49.426;8.396;2022-11-20T11:01:41;42.58;;;24.70;;
52686;SDS011;38584;49.426;8.396;2022-11-20T11:04:18;38.10;;;22.45;;
52686;SDS011;38584;49.426;8.396;2022-11-20T11:06:51;38.10;;;22.17;;
52686;SDS011;38584;49.426;8.396;2022-11-20T11:09:24;37.45;;;21.73;;
52686;SDS011;38584;49.426;8.396;2022-11-20T11:12:05;35.10;;;22.05;;
52686;SDS011;38584;49.426;8.396;2022-11-20T11:14:41;35.72;;;20.83;;
52686;SDS011;38584;49.426;8.396;2022-11-20T11:17:26;35.40;;;21.98;;
52686;SDS011;38584;49.426;8.396;2022-11-20T11:20:35;36.72;;;21.73;;
52686;SDS011;38584;49.426;8.396;2022-11-20T11:22:47;36.95;;;22.00;;
52686;SDS011;38584;49.426;8.396;2022-11-20T11:25:24;32.90;;;20.58;;
52686;SDS011;38584;49.426;8.396;2022-11-20T11:27:59;32.28;;;21.05;;
52686;SDS011;38584;49.426;8.396;2022-11-20T11:30:27;33.85;;;21.33;;
52686;SDS011;38584;49.426;8.396;2022-11-20T11:33:02;32.00;;;20.30;;
52686;SDS011;38584;49.426;8.396;2022-11-20T11:35:29;27.80;;;18.58;;
52686;SDS011;38584;49.426;8.396;2022-11-20T11:38:02;25.00;;;15.55;;
52686;SDS011;38584;49.426;8.396;2022-11-20T11:40:30;26.27;;;16.10;;
52686;SDS011;38584;49.426;8.396;2022-11-20T11:42:57;24.85;;;15.20;;
52686;SDS011;38584;49.426;8.396;2022-11-20T11:45:24;21.70;;;13.82;;
52686;SDS011;38584;49.426;8.396;2022-11-20T11:47:51;22.35;;;13.32;;
52686;SDS011;38584;49.426;8.396;2022-11-20T11:50:28;19.77;;;10.50;;
52686;SDS011;38584;49.426;8.396;2022-11-20T12:01:06;13.43;;;6.00;;
52686;SDS011;38584;49.426;8.396;2022-11-20T12:03:36;14.40;;;4.72;;
52686;SDS011;38584;49.426;8.396;2022-11-20T12:06:15;15.63;;;5.55;;
52686;SDS011;38584;49.426;8.396;2022-11-20T12:08:46;12.73;;;3.95;;
52686;SDS011;38584;49.426;8.396;2022-11-20T12:11:18;11.85;;;3.67;;
52686;SDS011;38584;49.426;8.396;2022-11-20T12:13:58;11.02;;;3.35;;
52686;SDS011;38584;49.426;8.396;2022-11-20T12:16:29;6.78;;;2.40;;
52686;SDS011;38584;49.426;8.396;2022-11-20T12:18:55;6.75;;;2.47;;
52686;SDS011;38584;49.426;8.396;2022-11-20T12:21:31;8.65;;;2.00;;
52686;SDS011;38584;49.426;8.396;2022-11-20T12:24:20;10.15;;;2.50;;
52686;SDS011;38584;49.426;8.396;2022-11-20T12:27:03;8.73;;;2.17;;
52686;SDS011;38584;49.426;8.396;2022-11-20T12:38:19;6.72;;;1.92;;
52686;SDS011;38584;49.426;8.396;2022-11-20T12:43:29;10.57;;;2.25;;
52686;SDS011;38584;49.426;8.396;2022-11-20T12:46:28;10.45;;;2.35;;
52686;SDS011;38584;49.426;8.396;2022-11-20T12:49:25;8.20;;;2.10;;
52686;SDS011;38584;49.426;8.396;2022-11-20T12:54:46;8.65;;;2.40;;
52686;SDS011;38584;49.426;8.396;2022-11-20T12:57:36;10.60;;;2.10;;
52686;SDS011;38584;49.426;8.396;2022-11-20T13:00:08;8.38;;;1.90;;
52686;SDS011;38584;49.426;8.396;2022-11-20T13:05:43;10.38;;;2.78;;
52686;SDS011;38584;49.426;8.396;2022-11-20T13:08:35;11.60;;;2.50;;
52686;SDS011;38584;49.426;8.396;2022-11-20T13:11:03;6.97;;;2.60;;
52686;SDS011;38584;49.426;8.396;2022-11-20T13:16:29;7.82;;;2.15;;
52686;SDS011;38584;49.426;8.396;2022-11-20T13:18:56;11.50;;;2.63;;
52686;SDS011;38584;49.426;8.396;2022-11-20T13:21:36;11.30;;;3.20;;
52686;SDS011;38584;49.426;8.396;2022-11-20T13:24:20;9.95;;;2.10;;
52686;SDS011;38584;49.426;8.396;2022-11-20T13:29:31;7.60;;;2.10;;
52686;SDS011;38584;49.426;8.396;2022-11-20T13:32:04;9.05;;;2.30;;
52686;SDS011;38584;49.426;8.396;2022-11-20T13:34:31;10.50;;;2.47;;
52686;SDS011;38584;49.426;8.396;2022-11-20T13:36:59;12.32;;;2.13;;
52686;SDS011;38584;49.426;8.396;2022-11-20T13:39:32;8.85;;;2.13;;
52686;SDS011;38584;49.426;8.396;2022-11-20T13:41:59;6.97;;;2.08;;
52686;SDS011;38584;49.426;8.396;2022-11-20T13:44:53;10.38;;;2.35;;
52686;SDS011;38584;49.426;8.396;2022-11-20T13:47:28;10.48;;;2.58;;
52686;SDS011;38584;49.426;8.396;2022-11-20T13:49:57;11.55;;;2.83;;
52686;SDS011;38584;49.426;8.396;2022-11-20T13:57:41;9.65;;;2.05;;
52686;SDS011;38584;49.426;8.396;2022-11-20T14:00:15;9.82;;;2.35;;
52686;SDS011;38584;49.426;8.396;2022-11-20T14:05:38;6.13;;;1.38;;
52686;SDS011;38584;49.426;8.396;2022-11-20T14:08:06;9.57;;;1.60;;
52686;SDS011;38584;49.426;8.396;2022-11-20T14:10:35;8.95;;;1.67;;
52686;SDS011;38584;49.426;8.396;2022-11-20T14:13:37;11.15;;;2.10;;
52686;SDS011;38584;49.426;8.396;2022-11-20T14:15:58;6.28;;;1.73;;
52686;SDS011;38584;49.426;8.396;2022-11-20T14:18:25;9.27;;;1.83;;
52686;SDS011;38584;49.426;8.396;2022-11-20T14:20:52;8.65;;;1.67;;
52686;SDS011;38584;49.426;8.396;2022-11-20T14:23:25;8.15;;;1.63;;
52686;SDS011;38584;49.426;8.396;2022-11-20T14:25:51;6.60;;;1.65;;
52686;SDS011;38584;49.426;8.396;2022-11-20T14:28:21;7.68;;;1.40;;
52686;SDS011;38584;49.426;8.396;2022-11-20T14:30:56;3.90;;;1.30;;
52686;SDS011;38584;49.426;8.396;2022-11-20T14:33:25;5.05;;;1.40;;
52686;SDS011;38584;49.426;8.396;2022-11-20T14:35:52;8.23;;;1.70;;
52686;SDS011;38584;49.426;8.396;2022-11-20T14:38:20;9.60;;;1.70;;
52686;SDS011;38584;49.426;8.396;2022-11-20T14:40:47;8.18;;;1.90;;
52686;SDS011;38584;49.426;8.396;2022-11-20T14:45:48;7.50;;;1.70;;
52686;SDS011;38584;49.426;8.396;2022-11-20T14:48:22;9.18;;;1.90;;
52686;SDS011;38584;49.426;8.396;2022-11-20T14:50:50;10.65;;;1.88;;
52686;SDS011;38584;49.426;8.396;2022-11-20T14:53:21;7.40;;;1.80;;
52686;SDS011;38584;49.426;8.396;2022-11-20T14:55:53;12.60;;;2.10;;
52686;SDS011;38584;49.426;8.396;2022-11-20T14:58:21;6.75;;;1.90;;
52686;SDS011;38584;49.426;8.396;2022-11-20T15:00:54;8.18;;;2.17;;
52686;SDS011;38584;49.426;8.396;2022-11-20T15:03:21;4.68;;;1.65;;
52686;SDS011;38584;49.426;8.396;2022-11-20T15:05:47;7.47;;;1.80;;
52686;SDS011;38584;49.426;8.396;2022-11-20T15:08:14;9.82;;;2.10;;
52686;SDS011;38584;49.426;8.396;2022-11-20T15:10:44;7.45;;;1.90;;
52686;SDS011;38584;49.426;8.396;2022-11-20T15:13:11;6.68;;;1.70;;
52686;SDS011;38584;49.426;8.396;2022-11-20T15:15:46;11.20;;;2.17;;
52686;SDS011;38584;49.426;8.396;2022-11-20T15:18:13;8.70;;;1.80;;
52686;SDS011;38584;49.426;8.396;2022-11-20T15:20:40;5.07;;;1.90;;
52686;SDS011;38584;49.426;8.396;2022-11-20T15:23:12;8.27;;;1.98;;
52686;SDS011;38584;49.426;8.396;2022-11-20T15:25:39;6.15;;;1.88;;
52686;SDS011;38584;49.426;8.396;2022-11-20T15:28:04;8.32;;;2.10;;
52686;SDS011;38584;49.426;8.396;2022-11-20T15:30:48;5.90;;;1.88;;
52686;SDS011;38584;49.426;8.396;2022-11-20T15:33:14;8.75;;;2.13;;
52686;SDS011;38584;49.426;8.396;2022-11-20T15:35:40;8.73;;;2.20;;
52686;SDS011;38584;49.426;8.396;2022-11-20T15:38:06;9.55;;;2.20;;
52686;SDS011;38584;49.426;8.396;2022-11-20T15:40:31;7.57;;;2.30;;
52686;SDS011;38584;49.426;8.396;2022-11-20T15:42:57;8.82;;;2.47;;
52686;SDS011;38584;49.426;8.396;2022-11-20T15:45:28;11.07;;;1.98;;
52686;SDS011;38584;49.426;8.396;2022-11-20T15:47:55;6.07;;;1.83;;
52686;SDS011;38584;49.426;8.396;2022-11-20T15:50:21;9.80;;;2.70;;
52686;SDS011;38584;49.426;8.396;2022-11-20T15:52:46;10.85;;;3.10;;